createdAt,value
2022-12-14T00:02:18.611Z,12.43
2022-12-14T00:05:06.285Z,14.93
2022-12-14T00:07:51.653Z,15.07
2022-12-14T00:10:38.762Z,12.90
2022-12-14T00:13:24.310Z,13.60
2022-12-14T00:16:16.300Z,18.57
2022-12-14T00:19:05.476Z,11.70
2022-12-14T00:21:53.729Z,14.53
2022-12-14T00:24:39.565Z,12.60
2022-12-14T00:27:24.687Z,14.00
2022-12-14T00:30:17.591Z,11.07
2022-12-14T00:33:02.831Z,15.33
2022-12-14T00:35:48.220Z,12.67
2022-12-14T00:38:36.470Z,13.37
2022-12-14T00:41:21.772Z,12.40
2022-12-14T00:44:07.871Z,13.70
2022-12-14T00:46:53.369Z,15.33
2022-12-14T00:49:41.595Z,13.80
2022-12-14T00:52:27.713Z,14.87
2022-12-14T00:55:13.069Z,16.63
2022-12-14T00:58:03.123Z,15.30
2022-12-14T01:00:59.256Z,14.97
2022-12-14T01:03:44.784Z,11.97
2022-12-14T01:06:32.645Z,13.07
2022-12-14T01:09:19.696Z,19.43
2022-12-14T01:12:05.872Z,16.57
2022-12-14T01:14:51.498Z,19.47
2022-12-14T01:17:36.938Z,16.27
2022-12-14T01:20:22.455Z,15.13
2022-12-14T01:23:09.944Z,14.13
2022-12-14T01:26:02.025Z,15.50
2022-12-14T01:28:51.607Z,11.00
2022-12-14T01:31:39.157Z,14.93
2022-12-14T01:34:24.774Z,17.73
2022-12-14T01:37:10.065Z,14.60
2022-12-14T01:39:59.272Z,16.17
2022-12-14T01:42:46.765Z,15.07
2022-12-14T01:45:32.215Z,14.13
2022-12-14T01:48:18.730Z,18.47
2022-12-14T01:51:06.298Z,13.40
2022-12-14T01:53:51.731Z,16.70
2022-12-14T01:56:40.393Z,14.03
2022-12-14T01:59:31.053Z,17.77
2022-12-14T02:02:20.786Z,14.97
2022-12-14T02:05:09.362Z,10.63
2022-12-14T02:07:58.591Z,18.03
2022-12-14T02:10:48.631Z,13.70
2022-12-14T02:13:42.425Z,19.60
2022-12-14T02:16:30.148Z,19.43
2022-12-14T02:19:15.890Z,15.57
2022-12-14T02:22:13.633Z,13.50
2022-12-14T02:25:29.864Z,14.70
2022-12-14T02:28:21.070Z,16.33
2022-12-14T02:31:28.653Z,12.60
2022-12-14T02:35:05.496Z,15.60
2022-12-14T02:38:11.972Z,17.10
2022-12-14T02:41:22.666Z,13.50
2022-12-14T02:44:43.105Z,15.87
2022-12-14T02:47:40.836Z,22.73
2022-12-14T02:50:42.267Z,13.93
2022-12-14T02:54:04.643Z,12.97
2022-12-14T02:57:05.157Z,16.20
2022-12-14T02:59:55.109Z,18.27
2022-12-14T03:02:43.787Z,14.93
2022-12-14T03:05:29.439Z,16.40
2022-12-14T03:08:16.737Z,14.17
2022-12-14T03:11:05.801Z,15.77
2022-12-14T03:13:58.538Z,12.50
2022-12-14T03:16:48.919Z,13.50
2022-12-14T03:19:50.547Z,16.20
2022-12-14T03:22:49.429Z,15.53
2022-12-14T03:25:50.360Z,16.80
2022-12-14T03:28:46.741Z,15.20
2022-12-14T03:31:49.096Z,9.60
2022-12-14T03:34:42.648Z,10.10
2022-12-14T03:37:38.912Z,14.63
2022-12-14T03:40:53.401Z,13.80
2022-12-14T03:43:49.729Z,18.00
2022-12-14T03:46:53.983Z,13.73
2022-12-14T03:49:51.446Z,17.40
2022-12-14T03:52:46.228Z,10.60
2022-12-14T03:55:54.753Z,17.20
2022-12-14T03:59:06.788Z,15.10
2022-12-14T04:01:55.183Z,16.03
2022-12-14T04:04:49.859Z,15.17
2022-12-14T04:07:49.403Z,15.13
2022-12-14T04:11:07.555Z,15.47
2022-12-14T04:14:27.314Z,14.20
2022-12-14T04:17:35.954Z,15.70
2022-12-14T04:20:42.695Z,19.47
2022-12-14T04:24:03.259Z,15.57
2022-12-14T04:26:58.515Z,15.60
2022-12-14T04:29:59.101Z,14.60
2022-12-14T04:32:49.389Z,16.07
2022-12-14T04:35:43.544Z,15.27
2022-12-14T04:38:35.038Z,14.80
2022-12-14T04:41:23.799Z,19.20
2022-12-14T04:44:36.763Z,16.63
2022-12-14T04:47:29.699Z,14.83
2022-12-14T04:50:31.652Z,13.53
2022-12-14T04:53:23.370Z,18.90
2022-12-14T04:56:46.819Z,12.60
2022-12-14T04:59:32.812Z,17.40
2022-12-14T05:02:34.560Z,15.70
2022-12-14T05:05:41.007Z,18.23
2022-12-14T05:09:09.663Z,15.83
2022-12-14T05:12:04.827Z,15.13
2022-12-14T05:15:02.421Z,14.13
2022-12-14T05:17:47.852Z,10.03
2022-12-14T05:20:33.577Z,15.20
2022-12-14T05:23:21.146Z,11.80
2022-12-14T05:26:06.375Z,15.00
2022-12-14T05:28:55.107Z,13.17
2022-12-14T05:31:40.402Z,11.97
2022-12-14T05:34:25.822Z,12.27
2022-12-14T05:37:18.266Z,13.50
2022-12-14T05:40:06.402Z,15.33
2022-12-14T05:42:55.666Z,17.03
2022-12-14T05:45:44.141Z,14.27
2022-12-14T05:48:30.160Z,11.57
2022-12-14T05:51:15.581Z,11.60
2022-12-14T05:54:01.068Z,15.70
2022-12-14T05:56:53.608Z,12.20
2022-12-14T05:59:39.039Z,15.03
2022-12-14T06:02:24.837Z,11.20
2022-12-14T06:05:10.474Z,14.40
2022-12-14T06:07:58.223Z,10.33
2022-12-14T06:10:43.518Z,15.97
2022-12-14T06:13:29.534Z,13.27
2022-12-14T06:16:21.167Z,10.67
2022-12-14T06:19:06.822Z,13.87
2022-12-14T06:21:52.200Z,11.40
2022-12-14T06:24:39.604Z,13.30
2022-12-14T06:27:24.897Z,13.20
2022-12-14T06:30:12.063Z,12.10
2022-12-14T06:32:57.360Z,16.87
2022-12-14T06:35:47.607Z,13.17
2022-12-14T06:38:34.893Z,12.60
2022-12-14T06:41:21.826Z,11.80
2022-12-14T06:44:16.001Z,10.73
2022-12-14T06:47:02.042Z,16.13
2022-12-14T06:49:47.317Z,17.00
2022-12-14T06:52:34.668Z,11.93
2022-12-14T06:55:22.059Z,11.90
2022-12-14T06:58:10.042Z,11.70
2022-12-14T07:00:55.808Z,14.67
2022-12-14T07:03:49.610Z,17.57
2022-12-14T07:06:40.908Z,14.57
2022-12-14T07:09:28.396Z,9.57
2022-12-14T07:12:13.621Z,17.77
2022-12-14T07:14:58.842Z,12.53
2022-12-14T07:17:44.415Z,12.47
2022-12-14T07:20:29.714Z,12.80
2022-12-14T07:23:15.159Z,13.20
2022-12-14T07:26:02.746Z,16.70
2022-12-14T07:28:48.817Z,14.30
2022-12-14T07:31:34.281Z,10.93
2022-12-14T07:34:20.031Z,14.43
2022-12-14T07:37:07.463Z,14.87
2022-12-14T07:39:53.151Z,14.70
2022-12-14T07:42:38.751Z,15.03
2022-12-14T07:45:25.391Z,14.50
2022-12-14T07:48:13.125Z,21.35
2022-12-14T07:51:06.650Z,15.10
2022-12-14T07:53:52.461Z,17.23
2022-12-14T07:56:40.945Z,14.87
2022-12-14T07:59:26.215Z,16.87
2022-12-14T08:02:14.265Z,14.00
2022-12-14T08:05:00.167Z,12.70
2022-12-14T08:07:48.649Z,13.53
2022-12-14T08:10:40.039Z,14.07
2022-12-14T08:13:29.576Z,10.80
2022-12-14T08:16:16.509Z,13.57
2022-12-14T08:19:07.654Z,14.20
2022-12-14T08:21:52.870Z,10.30
2022-12-14T08:24:41.009Z,10.33
2022-12-14T08:27:26.971Z,10.47
2022-12-14T08:30:14.837Z,11.93
2022-12-14T08:33:03.555Z,15.47
2022-12-14T08:35:51.564Z,19.30
2022-12-14T08:38:37.512Z,19.00
2022-12-14T08:41:25.815Z,14.97
2022-12-14T08:44:11.439Z,12.07
2022-12-14T08:46:56.984Z,12.10
2022-12-14T08:49:42.442Z,14.80
2022-12-14T08:52:33.137Z,13.90
2022-12-14T08:55:27.598Z,10.67
2022-12-14T08:58:14.980Z,13.07
2022-12-14T09:01:38.301Z,12.27
2022-12-14T09:04:24.478Z,12.63
2022-12-14T09:07:09.935Z,14.83
2022-12-14T09:09:55.556Z,15.30
2022-12-14T09:12:44.003Z,13.07
2022-12-14T09:15:29.244Z,12.23
2022-12-14T09:18:15.861Z,11.70
2022-12-14T09:21:03.732Z,10.17
2022-12-14T09:23:57.314Z,9.00
2022-12-14T09:26:44.762Z,13.83
2022-12-14T09:29:32.442Z,12.27
2022-12-14T09:32:18.121Z,10.70
2022-12-14T09:35:03.480Z,14.20
2022-12-14T09:37:48.945Z,12.23
2022-12-14T09:40:44.240Z,10.57
2022-12-14T09:43:45.732Z,12.50
2022-12-14T09:46:47.149Z,13.13
2022-12-14T09:49:47.084Z,12.80
2022-12-14T09:52:59.459Z,13.13
2022-12-14T09:55:55.906Z,11.37
2022-12-14T09:58:50.355Z,15.07
2022-12-14T10:02:30.516Z,10.87
2022-12-14T10:05:29.192Z,13.70
2022-12-14T10:08:27.707Z,12.47
2022-12-14T10:11:38.944Z,9.37
2022-12-14T10:14:44.471Z,13.03
2022-12-14T10:17:40.004Z,15.00
2022-12-14T10:20:37.642Z,10.77
2022-12-14T10:23:28.622Z,15.50
2022-12-14T10:26:19.017Z,10.63
2022-12-14T10:29:12.682Z,11.93
2022-12-14T10:32:08.164Z,16.40
2022-12-14T10:34:53.934Z,11.90
2022-12-14T10:38:03.765Z,8.00
2022-12-14T10:40:56.991Z,14.20
2022-12-14T10:44:05.167Z,10.00
2022-12-14T10:47:05.067Z,11.87
2022-12-14T10:50:19.515Z,11.63
2022-12-14T10:53:10.693Z,11.03
2022-12-14T10:56:03.920Z,13.47
2022-12-14T10:59:17.757Z,12.57
2022-12-14T11:02:14.116Z,11.10
2022-12-14T11:05:13.774Z,12.00
2022-12-14T11:08:00.023Z,11.00
2022-12-14T11:10:47.414Z,16.03
2022-12-14T11:13:35.132Z,10.47
2022-12-14T11:16:39.856Z,13.23
2022-12-14T11:19:26.905Z,13.53
2022-12-14T11:22:21.687Z,13.70
2022-12-14T11:25:28.108Z,12.17
2022-12-14T11:28:28.072Z,11.87
2022-12-14T11:31:34.622Z,7.70
2022-12-14T11:34:39.265Z,11.70
2022-12-14T11:37:31.585Z,13.20
2022-12-14T11:40:39.318Z,10.70
2022-12-14T11:43:32.092Z,9.80
2022-12-14T11:46:18.500Z,14.27
2022-12-14T11:49:03.892Z,8.20
2022-12-14T11:52:02.536Z,9.43
2022-12-14T11:54:50.044Z,9.03
2022-12-14T11:57:41.115Z,8.77
2022-12-14T12:00:45.384Z,9.13
2022-12-14T12:03:41.526Z,11.50
2022-12-14T12:06:29.660Z,12.63
2022-12-14T12:09:30.856Z,12.17
2022-12-14T12:12:20.436Z,9.13
2022-12-14T12:15:06.172Z,12.43
2022-12-14T12:18:28.232Z,10.50
2022-12-14T12:21:34.820Z,6.93
2022-12-14T12:25:08.241Z,9.13
2022-12-14T12:27:56.283Z,8.20
2022-12-14T12:30:47.850Z,8.00
2022-12-14T12:33:53.029Z,11.17
2022-12-14T12:36:51.588Z,9.03
2022-12-14T12:39:51.019Z,13.03
2022-12-14T12:42:48.746Z,9.50
2022-12-14T12:45:44.286Z,9.80
2022-12-14T12:48:36.166Z,13.90
2022-12-14T12:51:33.457Z,10.80
2022-12-14T12:54:24.786Z,13.20
2022-12-14T12:57:12.683Z,13.17
2022-12-14T12:59:59.250Z,6.37
2022-12-14T13:02:59.893Z,8.53
2022-12-14T13:05:48.424Z,10.63
2022-12-14T13:08:39.335Z,9.67
2022-12-14T13:11:37.997Z,10.60
2022-12-14T13:14:37.001Z,8.97
2022-12-14T13:17:51.417Z,8.57
2022-12-14T13:20:37.277Z,18.33
2022-12-14T13:30:00.575Z,11.87
2022-12-14T13:33:24.508Z,8.57
2022-12-14T13:36:21.952Z,9.87
2022-12-14T13:39:10.687Z,8.50
2022-12-14T13:42:10.801Z,7.60
2022-12-14T13:45:02.653Z,5.70
2022-12-14T13:47:54.135Z,10.60
2022-12-14T13:50:51.231Z,7.60
2022-12-14T13:53:50.305Z,9.30
2022-12-14T13:56:39.606Z,12.73
2022-12-14T13:59:49.657Z,10.27
2022-12-14T14:02:35.300Z,12.00
2022-12-14T14:05:26.919Z,12.03
2022-12-14T14:08:37.802Z,9.53
2022-12-14T14:11:42.468Z,8.70
2022-12-14T14:14:52.449Z,9.10
2022-12-14T14:17:44.892Z,10.20
2022-12-14T14:20:43.307Z,9.57
2022-12-14T14:23:39.063Z,10.00
2022-12-14T14:26:35.090Z,10.27
2022-12-14T14:29:30.158Z,10.97
2022-12-14T14:32:33.688Z,11.47
2022-12-14T14:35:40.998Z,11.70
2022-12-14T14:38:30.394Z,10.60
2022-12-14T14:41:28.117Z,11.80
2022-12-14T14:44:24.870Z,9.23
2022-12-14T14:47:32.995Z,13.30
2022-12-14T14:50:24.065Z,13.40
2022-12-14T14:53:18.972Z,13.97
2022-12-14T14:56:29.520Z,10.53
2022-12-14T14:59:16.828Z,14.27
2022-12-14T15:02:24.238Z,12.63
2022-12-14T15:08:37.537Z,10.97
2022-12-14T15:11:25.169Z,20.43
2022-12-14T15:14:22.579Z,14.17
2022-12-14T15:17:20.569Z,11.73
2022-12-14T15:20:21.600Z,12.60
2022-12-14T15:23:07.882Z,14.10
2022-12-14T15:26:04.216Z,13.60
2022-12-14T15:28:54.867Z,12.37
2022-12-14T15:31:43.116Z,11.33
2022-12-14T15:34:31.129Z,17.07
2022-12-14T15:37:28.772Z,15.80
2022-12-14T15:40:22.622Z,15.13
2022-12-14T15:43:20.924Z,13.13
2022-12-14T15:46:26.546Z,11.33
2022-12-14T15:49:23.118Z,11.40
2022-12-14T15:52:11.107Z,12.17
2022-12-14T15:55:00.201Z,12.70
2022-12-14T15:57:46.614Z,15.50
2022-12-14T16:00:33.484Z,17.17
2022-12-14T16:03:23.085Z,11.87
2022-12-14T16:06:11.917Z,14.73
2022-12-14T16:09:03.673Z,16.97
2022-12-14T16:11:59.408Z,15.70
2022-12-14T16:14:54.115Z,13.60
2022-12-14T16:17:42.921Z,14.80
2022-12-14T16:20:32.793Z,14.13
2022-12-14T16:23:18.019Z,16.70
2022-12-14T16:26:15.870Z,12.83
2022-12-14T16:29:25.864Z,21.43
2022-12-14T16:32:16.080Z,20.93
2022-12-14T16:35:02.211Z,17.00
2022-12-14T16:37:53.631Z,15.90
2022-12-14T16:40:42.927Z,19.97
2022-12-14T16:43:34.748Z,14.83
2022-12-14T16:46:20.807Z,20.00
2022-12-14T16:49:20.320Z,18.37
2022-12-14T16:52:31.592Z,17.20
2022-12-14T16:55:26.372Z,17.40
2022-12-14T16:58:17.896Z,20.87
2022-12-14T17:01:06.322Z,13.80
2022-12-14T17:04:03.628Z,19.90
2022-12-14T17:06:55.095Z,17.63
2022-12-14T17:09:42.798Z,20.37
2022-12-14T17:12:30.681Z,18.97
2022-12-14T17:15:18.858Z,20.47
2022-12-14T17:18:06.939Z,21.47
2022-12-14T17:20:54.683Z,19.90
2022-12-14T17:23:42.641Z,21.37
2022-12-14T17:26:33.399Z,20.63
2022-12-14T17:29:29.003Z,20.67
2022-12-14T17:32:16.684Z,24.60
2022-12-14T17:35:03.864Z,25.43
2022-12-14T17:37:49.384Z,24.97
2022-12-14T17:40:35.239Z,19.10
2022-12-14T17:43:24.582Z,24.83
2022-12-14T17:46:11.966Z,23.93
2022-12-14T17:49:00.325Z,21.27
2022-12-14T17:51:50.752Z,21.83
2022-12-14T17:54:35.995Z,25.53
2022-12-14T17:57:23.910Z,23.53
2022-12-14T18:00:37.137Z,27.33
2022-12-14T18:03:23.281Z,23.60
2022-12-14T18:06:16.259Z,22.80
2022-12-14T18:09:02.934Z,23.57
2022-12-14T18:12:14.433Z,22.33
2022-12-14T18:14:58.697Z,18.50
2022-12-14T18:17:46.599Z,22.60
2022-12-14T18:20:37.231Z,26.70
2022-12-14T18:23:23.058Z,26.50
2022-12-14T18:26:09.513Z,27.70
2022-12-14T18:28:55.427Z,28.43
2022-12-14T18:31:41.149Z,26.00
2022-12-14T18:34:26.704Z,25.33
2022-12-14T18:37:12.500Z,25.40
2022-12-14T18:39:57.994Z,27.23
2022-12-14T18:42:46.115Z,26.30
2022-12-14T18:45:35.308Z,30.47
2022-12-14T18:48:21.263Z,30.10
2022-12-14T18:51:13.713Z,25.73
2022-12-14T18:54:00.581Z,24.93
2022-12-14T18:56:47.048Z,25.30
2022-12-14T18:59:40.569Z,25.37
2022-12-14T19:02:30.545Z,25.30
2022-12-14T19:05:19.494Z,25.43
2022-12-14T19:08:05.274Z,28.60
2022-12-14T19:10:54.010Z,27.00
2022-12-14T19:13:39.815Z,28.30
2022-12-14T19:16:25.756Z,29.10
2022-12-14T19:19:11.486Z,27.33
2022-12-14T19:21:57.269Z,26.10
2022-12-14T19:24:50.710Z,30.20
2022-12-14T19:28:19.991Z,31.07
2022-12-14T19:30:48.028Z,23.27
2022-12-14T19:33:34.305Z,26.30
2022-12-14T19:36:19.613Z,30.73
2022-12-14T19:39:07.365Z,22.00
2022-12-14T19:41:54.191Z,28.20
2022-12-14T19:44:39.632Z,30.47
2022-12-14T19:47:25.379Z,33.93
2022-12-14T19:50:15.763Z,19.13
2022-12-14T19:53:04.016Z,24.00
2022-12-14T19:55:52.339Z,25.70
2022-12-14T19:58:37.791Z,30.90
2022-12-14T20:01:23.603Z,34.83
2022-12-14T20:04:09.491Z,25.37
2022-12-14T20:07:00.077Z,28.63
2022-12-14T20:09:46.506Z,28.77
2022-12-14T20:12:35.033Z,31.57
2022-12-14T20:15:20.532Z,31.27
2022-12-14T20:18:07.310Z,31.63
2022-12-14T20:20:53.352Z,30.37
2022-12-14T20:23:39.773Z,27.97
2022-12-14T20:26:25.893Z,26.87
2022-12-14T20:29:16.122Z,26.80
2022-12-14T20:32:06.489Z,29.30
2022-12-14T20:34:51.692Z,25.50
2022-12-14T20:37:37.300Z,35.30
2022-12-14T20:40:22.612Z,37.00
2022-12-14T20:43:08.970Z,33.80
2022-12-14T20:45:54.202Z,29.93
2022-12-14T20:48:39.561Z,27.90
2022-12-14T20:51:25.403Z,35.37
2022-12-14T20:54:16.629Z,28.47
2022-12-14T20:57:02.203Z,34.53
2022-12-14T20:59:47.523Z,33.50
2022-12-14T21:02:33.383Z,33.10
2022-12-14T21:05:19.094Z,29.20
2022-12-14T21:08:06.861Z,34.60
2022-12-14T21:11:23.397Z,24.30
2022-12-14T21:14:11.799Z,33.97
2022-12-14T21:16:57.288Z,28.10
2022-12-14T21:19:42.592Z,29.30
2022-12-14T21:22:30.278Z,31.97
2022-12-14T21:25:18.726Z,29.93
2022-12-14T21:28:04.387Z,35.80
2022-12-14T21:30:49.583Z,30.27
2022-12-14T21:33:35.748Z,33.30
2022-12-14T21:36:20.860Z,34.27
2022-12-14T21:39:08.388Z,27.23
2022-12-14T21:42:12.619Z,31.53
2022-12-14T21:45:00.523Z,34.77
2022-12-14T21:47:49.367Z,36.63
2022-12-14T21:50:34.956Z,36.93
2022-12-14T21:53:20.539Z,29.80
2022-12-14T21:56:24.780Z,32.40
2022-12-14T21:59:13.523Z,31.50
2022-12-14T22:02:02.092Z,29.73
2022-12-14T22:04:48.476Z,39.60
2022-12-14T22:07:34.661Z,26.23
2022-12-14T22:10:25.341Z,29.90
2022-12-14T22:13:13.436Z,36.67
2022-12-14T22:15:59.003Z,32.13
2022-12-14T22:18:46.872Z,32.85
2022-12-14T22:21:32.543Z,29.70
2022-12-14T22:24:20.630Z,26.90
2022-12-14T22:27:06.519Z,31.73
2022-12-14T22:29:54.261Z,33.67
2022-12-14T22:32:42.392Z,30.43
2022-12-14T22:35:27.540Z,26.50
2022-12-14T22:38:15.475Z,31.40
2022-12-14T22:41:02.681Z,36.97
2022-12-14T22:43:50.531Z,31.47
2022-12-14T22:46:36.057Z,33.57
2022-12-14T22:49:21.893Z,29.40
2022-12-14T22:52:07.304Z,37.67
2022-12-14T22:54:54.345Z,33.00
2022-12-14T22:57:44.637Z,32.67
2022-12-14T23:00:32.416Z,31.43
2022-12-14T23:03:17.925Z,34.37
2022-12-14T23:06:04.077Z,29.40
2022-12-14T23:09:08.556Z,33.93
2022-12-14T23:12:13.395Z,37.27
2022-12-14T23:15:20.571Z,28.47
2022-12-14T23:18:27.779Z,35.53
2022-12-14T23:21:32.763Z,36.47
2022-12-14T23:24:36.485Z,37.55
2022-12-14T23:27:40.554Z,31.13
2022-12-14T23:30:45.196Z,30.67
2022-12-14T23:33:49.987Z,36.20
2022-12-14T23:36:54.195Z,34.60
2022-12-14T23:39:58.543Z,40.93
2022-12-14T23:43:02.265Z,36.10
2022-12-14T23:46:06.265Z,35.67
2022-12-14T23:49:15.285Z,31.93
2022-12-14T23:52:19.573Z,35.00
2022-12-14T23:55:23.620Z,37.53
2022-12-14T23:58:27.596Z,35.33
